createdAt,value
2022-10-12T00:03:13.403Z,18.49
2022-10-12T00:08:36.326Z,18.48
2022-10-12T00:13:58.833Z,18.46
2022-10-12T00:19:20.454Z,18.46
2022-10-12T00:24:43.036Z,18.44
2022-10-12T00:30:05.518Z,18.44
2022-10-12T00:35:28.894Z,18.43
2022-10-12T00:40:50.869Z,18.40
2022-10-12T00:46:24.859Z,18.40
2022-10-12T00:51:53.243Z,18.38
2022-10-12T00:57:18.152Z,18.36
2022-10-12T01:02:43.230Z,18.36
2022-10-12T01:08:05.040Z,18.32
2022-10-12T01:13:27.155Z,18.33
2022-10-12T01:19:04.427Z,18.31
2022-10-12T01:24:52.166Z,18.31
2022-10-12T01:30:22.238Z,18.27
2022-10-12T01:36:05.189Z,18.27
2022-10-12T01:41:32.260Z,18.25
2022-10-12T01:46:55.545Z,18.24
2022-10-12T01:52:32.240Z,18.24
2022-10-12T01:58:02.894Z,18.23
2022-10-12T02:03:49.694Z,18.21
2022-10-12T02:09:41.619Z,18.20
2022-10-12T02:15:07.747Z,18.20
2022-10-12T02:20:29.425Z,18.19
2022-10-12T02:25:53.740Z,18.18
2022-10-12T02:31:25.794Z,18.18
2022-10-12T02:36:56.572Z,18.17
2022-10-12T02:42:24.942Z,18.17
2022-10-12T02:47:48.147Z,18.15
2022-10-12T02:53:12.748Z,18.14
2022-10-12T02:58:34.611Z,18.14
2022-10-12T03:03:56.305Z,18.13
2022-10-12T03:09:17.959Z,18.12
2022-10-12T03:14:40.219Z,18.10
2022-10-12T03:20:01.890Z,18.10
2022-10-12T03:25:23.553Z,18.10
2022-10-12T03:30:45.292Z,18.08
2022-10-12T03:36:08.222Z,18.07
2022-10-12T03:41:29.961Z,18.07
2022-10-12T03:46:51.686Z,18.05
2022-10-12T03:52:13.311Z,18.06
2022-10-12T03:57:35.210Z,18.04
2022-10-12T04:02:57.205Z,18.03
2022-10-12T04:08:18.924Z,18.03
2022-10-12T04:13:40.616Z,18.02
2022-10-12T04:19:02.810Z,18.01
2022-10-12T04:24:24.506Z,18.00
2022-10-12T04:29:46.320Z,17.98
2022-10-12T04:35:08.170Z,17.97
2022-10-12T04:40:30.222Z,17.99
2022-10-12T04:45:59.435Z,17.98
2022-10-12T04:51:21.163Z,17.96
2022-10-12T04:56:47.508Z,17.95
2022-10-12T05:02:09.827Z,17.96
2022-10-12T05:07:31.490Z,17.94
2022-10-12T05:12:53.152Z,18.06
2022-10-12T05:18:14.865Z,18.22
2022-10-12T05:23:36.506Z,18.33
2022-10-12T05:28:58.398Z,18.41
2022-10-12T05:34:20.450Z,18.44
2022-10-12T05:39:42.238Z,18.46
2022-10-12T05:45:05.077Z,18.44
2022-10-12T05:50:26.785Z,18.43
2022-10-12T05:55:59.246Z,18.43
2022-10-12T06:01:20.970Z,18.36
2022-10-12T06:06:42.717Z,18.35
2022-10-12T06:12:04.746Z,18.33
2022-10-12T06:17:26.475Z,18.31
2022-10-12T06:22:48.138Z,18.28
2022-10-12T06:28:10.547Z,18.28
2022-10-12T06:33:32.336Z,18.27
2022-10-12T06:38:54.027Z,18.25
2022-10-12T06:44:15.780Z,18.23
2022-10-12T06:49:37.444Z,18.20
2022-10-12T06:54:59.082Z,18.20
2022-10-12T07:00:20.963Z,18.20
2022-10-12T07:05:42.665Z,18.24
2022-10-12T07:11:06.240Z,18.44
2022-10-12T07:16:27.974Z,18.93
2022-10-12T07:21:49.745Z,19.59
2022-10-12T07:27:11.759Z,19.82
2022-10-12T07:32:33.490Z,20.08
2022-10-12T07:37:55.249Z,20.22
2022-10-12T07:43:17.318Z,20.44
2022-10-12T07:48:45.646Z,20.94
2022-10-12T07:54:11.011Z,21.88
2022-10-12T07:59:32.646Z,22.70
2022-10-12T08:04:54.336Z,22.96
2022-10-12T08:10:16.841Z,22.53
2022-10-12T08:15:38.499Z,21.92
2022-10-12T08:21:00.167Z,21.39
2022-10-12T08:26:21.836Z,20.99
2022-10-12T08:31:43.496Z,20.68
2022-10-12T08:37:05.158Z,20.49
2022-10-12T08:43:04.989Z,20.36
2022-10-12T08:48:34.755Z,20.21
2022-10-12T08:53:59.160Z,20.09
2022-10-12T08:59:21.124Z,19.99
2022-10-12T09:05:08.631Z,19.90
2022-10-12T09:10:45.106Z,19.83
2022-10-12T09:16:25.472Z,19.75
2022-10-12T09:21:48.941Z,19.66
2022-10-12T09:27:16.354Z,19.60
2022-10-12T09:32:49.398Z,19.55
2022-10-12T09:38:11.979Z,19.47
2022-10-12T09:43:33.786Z,19.42
2022-10-12T09:49:00.178Z,19.38
2022-10-12T09:54:28.698Z,19.35
2022-10-12T09:59:50.529Z,19.30
2022-10-12T10:05:25.903Z,19.27
2022-10-12T10:11:06.161Z,19.24
2022-10-12T10:16:29.360Z,19.20
2022-10-12T10:21:51.286Z,19.18
2022-10-12T10:27:30.946Z,19.18
2022-10-12T10:33:09.123Z,19.15
2022-10-12T10:39:01.222Z,19.14
2022-10-12T10:44:33.992Z,19.13
2022-10-12T10:49:57.705Z,19.29
2022-10-12T10:55:21.070Z,19.30
2022-10-12T11:00:49.240Z,19.30
2022-10-12T11:06:20.136Z,19.27
2022-10-12T11:11:44.167Z,19.22
2022-10-12T11:17:12.966Z,19.22
2022-10-12T11:22:45.110Z,19.24
2022-10-12T11:28:11.053Z,19.23
2022-10-12T11:33:39.500Z,19.19
2022-10-12T11:39:18.030Z,19.15
2022-10-12T11:44:47.735Z,19.13
2022-10-12T11:50:39.735Z,19.15
2022-10-12T11:56:21.895Z,19.18
2022-10-12T12:02:11.887Z,19.20
2022-10-12T12:07:41.355Z,19.21
2022-10-12T12:13:13.211Z,19.21
2022-10-12T12:19:09.890Z,19.22
2022-10-12T12:24:31.640Z,19.21
2022-10-12T12:29:54.330Z,19.23
2022-10-12T12:35:24.254Z,19.22
2022-10-12T12:41:05.904Z,19.23
2022-10-12T12:46:52.434Z,19.21
2022-10-12T12:52:29.541Z,19.21
2022-10-12T12:58:06.176Z,19.20
2022-10-12T13:03:52.454Z,19.21
2022-10-12T13:09:16.844Z,19.19
2022-10-12T13:14:54.761Z,19.20
2022-10-12T13:20:23.632Z,19.21
2022-10-12T13:26:06.619Z,19.21
2022-10-12T13:31:36.925Z,19.21
2022-10-12T13:37:01.373Z,19.20
2022-10-12T13:42:28.009Z,19.21
2022-10-12T13:47:49.687Z,19.20
2022-10-12T13:53:15.111Z,19.20
2022-10-12T13:58:37.082Z,19.19
2022-10-12T14:04:05.263Z,19.19
2022-10-12T14:09:31.257Z,19.18
2022-10-12T14:14:53.951Z,19.17
2022-10-12T14:20:35.010Z,19.19
2022-10-12T14:25:57.331Z,19.19
2022-10-12T14:31:19.154Z,19.19
2022-10-12T14:36:40.849Z,19.20
2022-10-12T14:42:19.256Z,19.21
2022-10-12T14:47:43.037Z,19.21
2022-10-12T14:53:10.207Z,19.21
2022-10-12T14:58:31.863Z,19.21
2022-10-12T15:03:53.509Z,19.20
2022-10-12T15:09:15.186Z,19.21
2022-10-12T15:14:36.817Z,19.21
2022-10-12T15:19:58.549Z,19.22
2022-10-12T15:25:23.912Z,19.22
2022-10-12T15:31:15.397Z,19.22
2022-10-12T15:36:28.314Z,19.22
2022-10-12T15:41:49.998Z,19.24
2022-10-12T15:47:12.065Z,19.24
2022-10-12T15:52:33.947Z,19.28
2022-10-12T15:57:56.674Z,19.31
2022-10-12T16:03:25.562Z,19.33
2022-10-12T16:08:47.844Z,19.32
2022-10-12T16:14:14.495Z,19.34
2022-10-12T16:19:36.129Z,19.34
2022-10-12T16:24:57.809Z,19.36
2022-10-12T16:30:20.249Z,19.35
2022-10-12T16:35:42.191Z,19.34
2022-10-12T16:41:11.551Z,19.34
2022-10-12T16:46:33.265Z,19.30
2022-10-12T16:51:55.247Z,19.27
2022-10-12T16:57:16.928Z,19.24
2022-10-12T17:02:39.068Z,19.24
2022-10-12T17:08:01.112Z,19.38
2022-10-12T17:13:22.782Z,19.58
2022-10-12T17:18:44.567Z,19.89
2022-10-12T17:24:06.509Z,20.23
2022-10-12T17:29:30.053Z,20.41
2022-10-12T17:34:51.755Z,20.48
2022-10-12T17:40:13.432Z,20.49
2022-10-12T17:45:35.070Z,20.46
2022-10-12T17:51:09.521Z,20.41
2022-10-12T17:56:31.318Z,20.34
2022-10-12T18:01:53.602Z,20.29
2022-10-12T18:07:15.585Z,20.22
2022-10-12T18:12:37.668Z,20.18
2022-10-12T18:17:59.362Z,20.11
2022-10-12T18:23:21.129Z,20.10
2022-10-12T18:28:42.926Z,20.08
2022-10-12T18:34:04.715Z,20.05
2022-10-12T18:39:26.377Z,20.06
2022-10-12T18:44:48.093Z,20.09
2022-10-12T18:50:09.938Z,20.18
2022-10-12T18:55:32.320Z,20.24
2022-10-12T19:00:55.269Z,20.33
2022-10-12T19:06:20.122Z,20.37
2022-10-12T19:11:41.880Z,20.39
2022-10-12T19:17:03.563Z,20.39
2022-10-12T19:22:26.351Z,20.37
2022-10-12T19:27:48.447Z,20.35
2022-10-12T19:33:10.119Z,20.32
2022-10-12T19:38:31.858Z,20.29
2022-10-12T19:43:53.827Z,20.24
2022-10-12T19:49:17.191Z,20.23
2022-10-12T19:54:38.865Z,20.33
2022-10-12T20:00:00.529Z,20.51
2022-10-12T20:05:22.184Z,20.70
2022-10-12T20:10:43.867Z,20.83
2022-10-12T20:16:06.170Z,20.88
2022-10-12T20:21:28.144Z,20.87
2022-10-12T20:26:49.803Z,20.80
2022-10-12T20:32:11.482Z,20.76
2022-10-12T20:37:33.449Z,20.70
2022-10-12T20:42:56.164Z,20.65
2022-10-12T20:48:18.055Z,20.58
2022-10-12T20:53:39.775Z,20.51
2022-10-12T20:59:02.093Z,20.42
2022-10-12T21:04:25.491Z,20.35
2022-10-12T21:09:47.226Z,20.23
2022-10-12T21:15:09.478Z,20.16
2022-10-12T21:20:31.121Z,20.09
2022-10-12T21:25:53.127Z,20.03
2022-10-12T21:31:15.853Z,19.99
2022-10-12T21:36:38.000Z,19.95
2022-10-12T21:41:59.649Z,19.89
2022-10-12T21:47:21.279Z,19.84
2022-10-12T21:52:42.951Z,19.81
2022-10-12T21:58:04.675Z,19.78
2022-10-12T22:03:26.304Z,19.74
2022-10-12T22:08:53.830Z,19.73
2022-10-12T22:14:18.372Z,19.67
2022-10-12T22:19:40.086Z,19.64
2022-10-12T22:25:01.777Z,19.62
2022-10-12T22:30:23.429Z,19.58
2022-10-12T22:36:00.046Z,19.56
2022-10-12T22:41:23.152Z,19.52
2022-10-12T22:46:44.899Z,19.48
2022-10-12T22:52:06.585Z,19.46
2022-10-12T22:57:30.186Z,19.43
2022-10-12T23:02:51.807Z,19.41
2022-10-12T23:08:15.242Z,19.38
2022-10-12T23:13:38.307Z,19.36
2022-10-12T23:19:02.136Z,19.36
2022-10-12T23:24:23.759Z,19.33
2022-10-12T23:29:46.923Z,19.32
2022-10-12T23:35:08.712Z,19.30
2022-10-12T23:40:30.350Z,19.29
2022-10-12T23:45:51.991Z,19.26
2022-10-12T23:51:13.772Z,19.27
2022-10-12T23:56:35.821Z,19.24
